Time;durP1;ratioP1;P1;durP2;ratioP2;P2;SDS_P1;SDS_P2;PMS_P1;PMS_P2;Temp;Humidity;BMP_temperature;BMP_pressure;BME280_temperature;BME280_humidity;BME280_pressure;Samples;Min_cycle;Max_cycle;Signal;HPM_P1;HPM_P2
2023/12/12 00:02:26;;;;;;;6.53;1.40;;;29.00;99.90;;;;;;4975403;28;20211;-75
2023/12/12 00:04:59;;;;;;;6.57;1.25;;;28.90;99.90;;;;;;4974603;28;20275;-74
2023/12/12 00:07:30;;;;;;;5.55;1.27;;;28.90;99.90;;;;;;4973942;28;20267;-74
2023/12/12 00:10:00;;;;;;;5.18;1.40;;;29.10;99.90;;;;;;4966719;28;20304;-75
2023/12/12 00:12:31;;;;;;;5.53;1.00;;;29.20;99.90;;;;;;4965639;28;20199;-75
2023/12/12 00:15:02;;;;;;;4.63;1.00;;;29.00;99.90;;;;;;4961833;28;20295;-75
2023/12/12 00:17:33;;;;;;;5.15;0.82;;;29.00;99.90;;;;;;4974618;28;20282;-75
2023/12/12 00:20:06;;;;;;;6.32;1.30;;;29.10;99.90;;;;;;4974149;28;20196;-74
2023/12/12 00:22:36;;;;;;;4.10;0.98;;;29.20;99.90;;;;;;4972934;28;20192;-74
2023/12/12 00:25:07;;;;;;;4.90;1.00;;;29.20;99.90;;;;;;4975042;28;20311;-74
2023/12/12 00:27:38;;;;;;;4.75;1.05;;;29.30;99.90;;;;;;4974919;28;20188;-75
2023/12/12 00:30:10;;;;;;;5.93;1.00;;;29.40;99.90;;;;;;4974187;28;20258;-74
2023/12/12 00:32:41;;;;;;;3.80;0.73;;;29.30;99.90;;;;;;4973390;28;20686;-75
2023/12/12 00:35:14;;;;;;;6.32;1.10;;;29.40;99.90;;;;;;4974390;28;20189;-75
2023/12/12 00:37:44;;;;;;;4.35;0.95;;;29.40;99.90;;;;;;4964795;28;20275;-74
2023/12/12 00:40:15;;;;;;;6.75;0.95;;;29.40;99.90;;;;;;4967851;28;20721;-75
2023/12/12 00:42:46;;;;;;;4.63;1.20;;;29.50;99.90;;;;;;4955555;28;20228;-76
2023/12/12 00:45:17;;;;;;;5.75;0.95;;;29.50;99.90;;;;;;4969131;28;20228;-74
2023/12/12 00:47:48;;;;;;;5.13;1.00;;;29.40;99.90;;;;;;4972622;28;20236;-75
2023/12/12 00:50:21;;;;;;;4.25;0.93;;;29.50;99.90;;;;;;4966982;28;20618;-74
2023/12/12 00:52:52;;;;;;;2.75;0.75;;;29.50;99.90;;;;;;4982797;28;20562;-75
2023/12/12 00:55:22;;;;;;;7.20;1.20;;;29.40;99.90;;;;;;4974393;28;20600;-75
2023/12/12 00:57:53;;;;;;;7.43;1.30;;;29.40;99.90;;;;;;4973885;28;20194;-75
2023/12/12 01:00:24;;;;;;;5.65;0.80;;;29.40;99.90;;;;;;4973853;28;20192;-75
2023/12/12 01:02:55;;;;;;;5.68;0.98;;;29.40;99.90;;;;;;4973718;28;20198;-75
2023/12/12 01:05:28;;;;;;;3.90;0.98;;;29.50;99.90;;;;;;4970719;28;20283;-75
2023/12/12 01:07:59;;;;;;;5.13;1.30;;;29.60;99.90;;;;;;4972566;28;20207;-74
2023/12/12 01:10:29;;;;;;;4.68;1.00;;;29.50;99.90;;;;;;4972972;28;20582;-75
2023/12/12 01:13:01;;;;;;;4.07;0.95;;;29.40;99.90;;;;;;4964702;28;20192;-75
2023/12/12 01:15:32;;;;;;;4.07;1.20;;;29.50;99.90;;;;;;4972806;28;20236;-74
2023/12/12 01:18:03;;;;;;;6.88;1.40;;;29.70;99.90;;;;;;4973681;28;20272;-74
2023/12/12 01:20:36;;;;;;;6.25;1.13;;;29.60;99.90;;;;;;4973643;28;20227;-74
2023/12/12 01:23:07;;;;;;;7.22;1.20;;;29.60;99.90;;;;;;4972920;28;20309;-76
2023/12/12 01:25:38;;;;;;;5.47;0.98;;;29.70;99.90;;;;;;4972569;28;20584;-76
2023/12/12 01:28:09;;;;;;;6.55;1.13;;;29.80;99.90;;;;;;4960092;28;20275;-75
2023/12/12 01:30:39;;;;;;;7.70;1.33;;;29.80;99.90;;;;;;4973540;28;20299;-75
2023/12/12 01:33:10;;;;;;;4.68;0.93;;;29.70;99.90;;;;;;4973697;28;20188;-75
2023/12/12 01:35:43;;;;;;;6.35;1.00;;;29.80;99.90;;;;;;4973990;28;20633;-75
2023/12/12 01:38:14;;;;;;;5.13;1.00;;;29.70;99.90;;;;;;4973767;28;20283;-75
2023/12/12 01:40:47;;;;;;;4.72;0.90;;;29.60;99.90;;;;;;4971960;28;20204;-76
2023/12/12 01:43:26;;;;;;;5.53;1.00;;;29.60;99.90;;;;;;4972894;28;20205;-75
2023/12/12 01:45:59;;;;;;;5.55;1.17;;;29.50;99.90;;;;;;4973847;28;20318;-76
2023/12/12 01:48:31;;;;;;;4.65;1.00;;;29.50;99.90;;;;;;4973404;28;20665;-75
2023/12/12 01:51:04;;;;;;;6.70;1.00;;;29.50;99.90;;;;;;4972561;28;20220;-75
2023/12/12 01:53:38;;;;;;;4.57;0.65;;;29.40;99.90;;;;;;4973376;28;20279;-75
2023/12/12 01:56:10;;;;;;;7.13;1.00;;;29.30;99.90;;;;;;4969864;28;20192;-76
2023/12/12 01:58:43;;;;;;;4.90;0.98;;;29.50;99.90;;;;;;4977960;28;20195;-76
2023/12/12 02:01:15;;;;;;;3.50;0.77;;;29.50;99.90;;;;;;4975635;28;20192;-75
2023/12/12 02:03:46;;;;;;;3.58;0.80;;;29.70;99.90;;;;;;4977104;28;20271;-75
2023/12/12 02:06:22;;;;;;;4.38;0.88;;;29.80;99.90;;;;;;4975723;28;20299;-75
2023/12/12 02:08:53;;;;;;;3.95;0.80;;;29.90;99.90;;;;;;4975056;28;20228;-75
2023/12/12 02:11:24;;;;;;;6.05;1.13;;;29.90;99.90;;;;;;4974346;28;20234;-75
2023/12/12 02:13:55;;;;;;;4.63;1.00;;;29.70;99.90;;;;;;4972959;28;20622;-76
2023/12/12 02:16:26;;;;;;;5.80;1.20;;;29.70;99.90;;;;;;4975631;28;20204;-76
2023/12/12 02:18:57;;;;;;;7.18;1.00;;;29.70;99.90;;;;;;4975876;28;20275;-75
2023/12/12 02:21:29;;;;;;;6.63;1.10;;;29.70;99.90;;;;;;4977391;28;20287;-75
2023/12/12 02:24:00;;;;;;;6.05;1.35;;;29.70;99.90;;;;;;4968300;28;20278;-75
2023/12/12 02:26:31;;;;;;;4.43;1.00;;;29.90;99.90;;;;;;4977222;28;20696;-75
2023/12/12 02:29:02;;;;;;;4.60;1.00;;;29.90;99.90;;;;;;4969232;28;20680;-75
2023/12/12 02:31:33;;;;;;;5.68;1.20;;;29.90;99.90;;;;;;4972871;28;20711;-75
2023/12/12 02:34:03;;;;;;;5.47;1.13;;;;;;;;;;4967314;28;20202;-75
2023/12/12 02:36:36;;;;;;;6.25;1.20;;;29.70;99.90;;;;;;4977122;28;20251;-76
2023/12/12 02:39:07;;;;;;;4.80;1.00;;;29.60;99.90;;;;;;4976979;28;20627;-75
2023/12/12 02:41:38;;;;;;;4.97;1.10;;;29.60;99.90;;;;;;4973236;28;20189;-75
2023/12/12 02:44:08;;;;;;;4.53;1.20;;;;;;;;;;4977014;28;20236;-74
2023/12/12 02:46:39;;;;;;;6.53;1.23;;;29.60;99.90;;;;;;4971652;28;20214;-75
2023/12/12 02:49:09;;;;;;;3.72;0.93;;;;;;;;;;4977601;28;20196;-74
2023/12/12 02:51:42;;;;;;;5.65;1.20;;;29.30;99.90;;;;;;4976527;28;20723;-75
2023/12/12 02:54:13;;;;;;;4.10;1.10;;;29.20;99.90;;;;;;4957526;28;20283;-74
2023/12/12 02:56:44;;;;;;;6.72;1.17;;;29.00;99.90;;;;;;4975486;28;20231;-73
2023/12/12 02:59:14;;;;;;;4.88;0.95;;;29.00;99.90;;;;;;4976778;28;20283;-74
2023/12/12 03:01:45;;;;;;;4.78;1.10;;;29.10;99.90;;;;;;4971946;28;20200;-74
2023/12/12 03:04:16;;;;;;;6.05;1.10;;;29.30;99.90;;;;;;4975583;28;20230;-74
2023/12/12 03:06:49;;;;;;;3.22;0.90;;;29.20;99.90;;;;;;4975821;28;20224;-74
2023/12/12 03:09:19;;;;;;;5.47;0.90;;;29.30;99.90;;;;;;4976249;28;20204;-74
2023/12/12 03:11:51;;;;;;;3.95;0.75;;;29.40;99.90;;;;;;4973715;28;20869;-75
2023/12/12 03:14:25;;;;;;;6.43;1.17;;;29.40;99.90;;;;;;4975857;28;20188;-74
2023/12/12 03:16:56;;;;;;;2.97;0.80;;;29.30;99.90;;;;;;4975111;28;20196;-74
2023/12/12 03:19:27;;;;;;;4.97;0.82;;;29.10;99.90;;;;;;4976175;28;20192;-73
2023/12/12 03:21:59;;;;;;;4.07;0.90;;;29.10;99.90;;;;;;4975445;28;20660;-75
2023/12/12 03:24:30;;;;;;;4.47;1.02;;;29.00;99.90;;;;;;4975861;28;20208;-74
2023/12/12 03:27:01;;;;;;;4.82;0.73;;;29.00;99.90;;;;;;4975643;28;20195;-74
2023/12/12 03:29:32;;;;;;;6.38;1.00;;;28.90;99.90;;;;;;4970998;28;20196;-73
2023/12/12 03:32:02;;;;;;;4.45;1.02;;;29.00;99.90;;;;;;4973463;28;20651;-76
2023/12/12 03:34:33;;;;;;;4.47;0.93;;;28.80;99.90;;;;;;4970547;28;20199;-76
2023/12/12 03:37:06;;;;;;;3.92;0.90;;;28.90;99.90;;;;;;4976129;28;20566;-74
2023/12/12 03:39:37;;;;;;;4.25;0.95;;;28.90;99.90;;;;;;4975848;28;20199;-76
2023/12/12 03:42:09;;;;;;;5.07;1.10;;;28.70;99.90;;;;;;4975455;28;20593;-75
2023/12/12 03:44:40;;;;;;;12.55;1.02;;;28.70;99.90;;;;;;4972685;28;20283;-74
2023/12/12 03:47:10;;;;;;;4.30;0.85;;;28.50;99.90;;;;;;4974867;28;20565;-74
2023/12/12 03:49:41;;;;;;;5.93;0.90;;;28.40;99.90;;;;;;4975591;28;20197;-74
2023/12/12 03:52:14;;;;;;;6.13;1.08;;;28.50;99.90;;;;;;4969655;28;20216;-74
2023/12/12 03:54:44;;;;;;;5.57;0.95;;;28.40;99.90;;;;;;4969525;28;20193;-74
2023/12/12 03:57:15;;;;;;;4.63;1.10;;;28.30;99.90;;;;;;4975576;28;20199;-74
2023/12/12 03:59:46;;;;;;;8.68;1.23;;;28.30;99.90;;;;;;4973102;28;20195;-74
2023/12/12 04:02:17;;;;;;;5.95;1.08;;;28.10;99.90;;;;;;4974368;28;20204;-73
2023/12/12 04:04:47;;;;;;;5.43;1.20;;;28.00;99.90;;;;;;4975052;28;20203;-75
2023/12/12 04:07:20;;;;;;;4.80;1.02;;;27.90;99.90;;;;;;4970111;28;20184;-74
2023/12/12 04:09:51;;;;;;;6.13;0.90;;;27.80;99.90;;;;;;4974877;28;20193;-75
2023/12/12 04:12:22;;;;;;;7.78;1.10;;;27.60;99.90;;;;;;4972503;28;20213;-75
2023/12/12 04:14:52;;;;;;;6.95;1.10;;;27.40;99.90;;;;;;4975104;28;20208;-74
2023/12/12 04:17:23;;;;;;;5.05;1.10;;;27.20;99.90;;;;;;4972818;28;20222;-74
2023/12/12 04:19:54;;;;;;;7.45;1.30;;;27.10;99.90;;;;;;4974560;28;20200;-74
2023/12/12 04:22:27;;;;;;;7.85;0.90;;;27.10;99.90;;;;;;4963672;28;20560;-74
2023/12/12 04:24:57;;;;;;;3.92;0.93;;;27.00;99.90;;;;;;4973192;28;20294;-74
2023/12/12 04:27:28;;;;;;;6.35;1.00;;;27.10;99.90;;;;;;4974026;28;21750;-74
2023/12/12 04:29:59;;;;;;;6.00;1.00;;;;;;;;;;4974695;28;20189;-74
2023/12/12 04:32:29;;;;;;;8.07;1.13;;;26.90;99.90;;;;;;4974477;28;20223;-75
2023/12/12 04:35:00;;;;;;;6.07;1.10;;;27.00;99.90;;;;;;4970314;28;20196;-75
2023/12/12 04:37:33;;;;;;;5.20;0.90;;;26.90;99.90;;;;;;4974212;28;20200;-74
2023/12/12 04:40:03;;;;;;;4.82;1.10;;;26.90;99.90;;;;;;4975000;28;20275;-74
2023/12/12 04:42:34;;;;;;;4.90;0.93;;;26.80;99.90;;;;;;4974514;28;20199;-75
2023/12/12 04:45:05;;;;;;;4.93;1.00;;;26.80;99.90;;;;;;4970460;28;20267;-76
2023/12/12 04:47:36;;;;;;;5.43;1.00;;;26.80;99.90;;;;;;4973588;28;20196;-75
2023/12/12 04:50:07;;;;;;;6.25;0.90;;;26.90;99.90;;;;;;4973289;28;20207;-74
2023/12/12 04:52:40;;;;;;;4.90;0.93;;;26.80;99.90;;;;;;4974212;28;20219;-74
2023/12/12 04:55:11;;;;;;;5.82;1.10;;;27.00;99.90;;;;;;4972847;28;20211;-77
2023/12/12 04:57:43;;;;;;;5.22;1.08;;;27.20;99.90;;;;;;4974274;28;20196;-74
2023/12/12 05:00:15;;;;;;;6.13;1.20;;;27.30;99.90;;;;;;4974917;28;20641;-76
2023/12/12 05:02:46;;;;;;;7.78;1.30;;;27.60;99.90;;;;;;4974781;28;20208;-74
2023/12/12 05:05:19;;;;;;;6.28;1.30;;;27.50;99.90;;;;;;4972931;28;20196;-74
2023/12/12 05:07:51;;;;;;;7.28;1.10;;;;;;;;;;4974218;28;20198;-74
2023/12/12 05:10:22;;;;;;;7.85;1.10;;;27.40;99.90;;;;;;4973526;28;20188;-73
2023/12/12 05:12:53;;;;;;;4.03;0.70;;;27.30;99.90;;;;;;4974331;28;20206;-74
2023/12/12 05:15:24;;;;;;;8.07;1.23;;;27.20;99.90;;;;;;4973738;28;20192;-74
2023/12/12 05:17:55;;;;;;;4.20;1.35;;;27.10;99.90;;;;;;4974149;28;20199;-73
2023/12/12 05:20:25;;;;;;;4.97;1.30;;;27.00;99.90;;;;;;4974113;28;20196;-75
2023/12/12 05:22:58;;;;;;;6.40;1.10;;;27.00;99.90;;;;;;4973888;28;20203;-75
2023/12/12 05:25:29;;;;;;;6.88;0.80;;;26.90;99.90;;;;;;4964564;28;20220;-74
2023/12/12 05:28:00;;;;;;;7.03;1.02;;;26.80;99.90;;;;;;4973789;28;20322;-74
2023/12/12 05:30:31;;;;;;;6.30;1.05;;;26.80;99.90;;;;;;4974021;28;20188;-74
2023/12/12 05:33:02;;;;;;;5.38;1.42;;;26.90;99.90;;;;;;4973585;28;20284;-74
2023/12/12 05:35:32;;;;;;;7.07;1.10;;;26.90;99.90;;;;;;4975313;28;20195;-75
2023/12/12 05:38:06;;;;;;;6.43;1.30;;;27.10;99.90;;;;;;4978107;28;20198;-74
2023/12/12 05:40:36;;;;;;;6.88;1.27;;;;;;;;;;4977553;28;20196;-75
2023/12/12 05:43:07;;;;;;;4.95;0.95;;;27.20;99.90;;;;;;4977461;28;20196;-75
2023/12/12 05:45:38;;;;;;;5.43;1.00;;;27.20;99.90;;;;;;4978210;28;20302;-75
2023/12/12 05:48:08;;;;;;;8.07;1.00;;;;;;;;;;4974982;28;20315;-75
2023/12/12 05:50:38;;;;;;;7.22;1.25;;;;;;;;;;4977481;28;20206;-75
2023/12/12 05:53:10;;;;;;;7.60;1.48;;;;;;;;;;4977792;28;20196;-75
2023/12/12 05:55:42;;;;;;;4.95;1.10;;;;;;;;;;4977603;28;20231;-74
2023/12/12 05:58:12;;;;;;;6.57;1.20;;;;;;;;;;4977021;28;20188;-75
2023/12/12 06:00:42;;;;;;;4.82;1.27;;;;;;;;;;4977353;28;20204;-75
2023/12/12 06:03:12;;;;;;;6.15;1.20;;;;;;;;;;4977601;28;20211;-74
2023/12/12 06:05:43;;;;;;;6.18;1.15;;;;;;;;;;4977586;28;20210;-74
2023/12/12 06:08:14;;;;;;;6.55;1.20;;;;;;;;;;4977384;28;20212;-74
2023/12/12 06:10:44;;;;;;;4.15;1.08;;;;;;;;;;4977568;28;20226;-75
2023/12/12 06:13:15;;;;;;;6.10;1.33;;;;;;;;;;4976514;28;20212;-75
2023/12/12 06:15:45;;;;;;;6.20;1.10;;;;;;;;;;4977477;28;20211;-76
2023/12/12 06:18:15;;;;;;;7.18;1.00;;;;;;;;;;4977397;28;20242;-74
2023/12/12 06:20:45;;;;;;;5.43;1.23;;;;;;;;;;4973420;28;20203;-75
2023/12/12 06:23:17;;;;;;;6.30;1.17;;;;;;;;;;4977045;28;20207;-75
2023/12/12 06:25:48;;;;;;;8.68;1.50;;;;;;;;;;4976899;28;20224;-75
2023/12/12 06:28:18;;;;;;;8.63;1.30;;;;;;;;;;4976277;28;20204;-75
2023/12/12 06:30:48;;;;;;;6.57;1.77;;;;;;;;;;4971177;28;20204;-75
2023/12/12 06:33:19;;;;;;;6.45;1.52;;;27.20;99.90;;;;;;4969120;28;20221;-76
2023/12/12 06:35:49;;;;;;;7.43;1.40;;;;;;;;;;4970719;28;20259;-74
2023/12/12 06:38:22;;;;;;;5.75;1.25;;;26.10;99.90;;;;;;4976604;28;20200;-75
2023/12/12 06:40:52;;;;;;;6.35;1.20;;;;;;;;;;4974961;28;20197;-75
2023/12/12 06:43:22;;;;;;;5.57;1.33;;;26.00;99.90;;;;;;4975575;28;20204;-75
2023/12/12 06:45:53;;;;;;;6.43;1.30;;;26.00;99.90;;;;;;4968061;28;20236;-76
2023/12/12 06:48:24;;;;;;;4.65;1.05;;;26.00;99.90;;;;;;4975351;28;20199;-75
2023/12/12 06:50:56;;;;;;;5.45;1.35;;;26.00;99.90;;;;;;4975927;28;20196;-74
2023/12/12 06:53:29;;;;;;;5.85;1.13;;;26.00;99.90;;;;;;4975442;28;20247;-75
2023/12/12 06:56:00;;;;;;;7.40;1.40;;;26.00;99.90;;;;;;4973621;28;20193;-75
2023/12/12 06:58:31;;;;;;;5.35;1.17;;;26.00;99.90;;;;;;4965658;28;20196;-75
2023/12/12 07:01:02;;;;;;;6.00;1.35;;;25.90;99.90;;;;;;4974471;28;20280;-75
2023/12/12 07:03:33;;;;;;;6.32;1.45;;;25.80;99.90;;;;;;4965291;28;20735;-75
2023/12/12 07:06:06;;;;;;;6.35;1.40;;;25.80;99.90;;;;;;4976040;28;20224;-75
2023/12/12 07:08:39;;;;;;;6.32;1.30;;;25.80;99.90;;;;;;4975257;28;20279;-76
2023/12/12 07:11:09;;;;;;;5.45;1.38;;;;;;;;;;4973549;28;20212;-77
2023/12/12 07:13:39;;;;;;;6.47;1.10;;;;;;;;;;4973740;28;20251;-76
2023/12/12 07:16:11;;;;;;;6.93;1.63;;;25.70;99.90;;;;;;4973824;28;20283;-76
2023/12/12 07:18:43;;;;;;;7.25;1.20;;;;;;;;;;4974628;28;20204;-76
2023/12/12 07:21:15;;;;;;;6.93;1.23;;;25.50;99.90;;;;;;4975300;28;20192;-75
2023/12/12 07:23:51;;;;;;;8.15;1.38;;;;;;;;;;4975831;28;20664;-75
2023/12/12 07:26:24;;;;;;;6.07;1.75;;;;;;;;;;4974703;28;20220;-76
2023/12/12 07:28:54;;;;;;;4.22;1.30;;;25.20;99.90;;;;;;4976100;28;20207;-76
2023/12/12 07:31:24;;;;;;;9.18;1.30;;;;;;;;;;4975257;28;20196;-75
2023/12/12 07:33:54;;;;;;;6.35;1.20;;;;;;;;;;4975504;28;20200;-76
2023/12/12 07:36:25;;;;;;;4.85;1.48;;;25.10;99.90;;;;;;4975555;28;20208;-75
2023/12/12 07:39:00;;;;;;;11.95;5.40;;;25.10;99.90;;;;;;4974909;28;20204;-75
2023/12/12 07:41:30;;;;;;;9.63;3.80;;;;;;;;;;4973656;28;20200;-75
2023/12/12 07:44:00;;;;;;;12.77;1.42;;;;;;;;;;4968989;28;20256;-74
2023/12/12 07:46:30;;;;;;;7.10;1.23;;;;;;;;;;4974226;28;20634;-75
2023/12/12 07:49:01;;;;;;;6.65;1.33;;;24.90;99.90;;;;;;4969627;28;20211;-75
2023/12/12 07:51:32;;;;;;;5.78;1.70;;;;;;;;;;4972626;28;20224;-76
2023/12/12 07:54:06;;;;;;;4.68;1.30;;;24.70;99.90;;;;;;4974897;28;20204;-75
2023/12/12 07:56:37;;;;;;;4.18;1.20;;;24.60;99.90;;;;;;4973478;28;20192;-75
2023/12/12 07:59:08;;;;;;;6.85;1.50;;;24.60;99.90;;;;;;4976620;28;20291;-75
2023/12/12 08:01:39;;;;;;;6.95;1.42;;;24.50;99.90;;;;;;4978068;28;20707;-75
2023/12/12 08:04:10;;;;;;;7.18;1.33;;;24.50;99.90;;;;;;4974232;28;20196;-75
2023/12/12 08:06:40;;;;;;;6.95;1.45;;;24.50;99.90;;;;;;4974281;28;20562;-75
2023/12/12 08:09:13;;;;;;;8.68;1.80;;;24.50;99.90;;;;;;4974999;28;20207;-75
2023/12/12 08:11:45;;;;;;;5.90;1.60;;;;;;;;;;4971556;28;20660;-76
2023/12/12 08:14:15;;;;;;;5.88;1.50;;;;;;;;;;4973899;28;20220;-75
2023/12/12 08:16:46;;;;;;;4.30;1.40;;;24.60;99.90;;;;;;4973910;28;20219;-76
2023/12/12 08:19:17;;;;;;;9.10;1.52;;;24.50;99.90;;;;;;4975247;28;20200;-75
2023/12/12 08:21:48;;;;;;;6.25;1.20;;;24.40;99.90;;;;;;4974932;28;20202;-76
2023/12/12 08:24:20;;;;;;;4.75;1.60;;;;;;;;;;4976886;28;20250;-76
2023/12/12 08:26:50;;;;;;;7.30;1.30;;;;;;;;;;4978427;28;20307;-76
2023/12/12 08:29:20;;;;;;;6.38;1.40;;;;;;;;;;4973816;28;20208;-76
2023/12/12 08:31:50;;;;;;;7.35;1.48;;;24.30;99.90;;;;;;4974124;28;20216;-76
2023/12/12 08:34:21;;;;;;;7.40;1.67;;;24.30;99.90;;;;;;4974281;28;20581;-76
2023/12/12 08:36:52;;;;;;;9.82;1.58;;;24.20;99.90;;;;;;4974342;28;20287;-75
2023/12/12 08:39:25;;;;;;;6.75;1.60;;;24.20;99.90;;;;;;4973430;28;20204;-75
2023/12/12 08:41:55;;;;;;;7.72;1.60;;;24.10;99.90;;;;;;4974549;28;20294;-76
2023/12/12 08:44:26;;;;;;;5.28;1.20;;;24.10;99.90;;;;;;4974427;28;20326;-75
2023/12/12 08:46:57;;;;;;;6.80;1.30;;;24.10;99.90;;;;;;4974165;28;20196;-75
2023/12/12 08:49:28;;;;;;;4.57;1.30;;;24.10;99.90;;;;;;4974442;28;20227;-74
2023/12/12 08:51:59;;;;;;;10.30;1.23;;;24.00;99.90;;;;;;4970418;28;20201;-75
2023/12/12 08:54:31;;;;;;;6.65;1.30;;;24.00;99.90;;;;;;4968409;28;20196;-75
2023/12/12 08:57:02;;;;;;;4.53;1.33;;;23.90;99.90;;;;;;4971277;28;20279;-74
2023/12/12 08:59:33;;;;;;;6.57;1.48;;;23.90;99.90;;;;;;4971886;28;20201;-75
2023/12/12 09:02:04;;;;;;;5.82;1.48;;;23.90;99.90;;;;;;4972335;28;20201;-74
2023/12/12 09:04:35;;;;;;;4.72;1.20;;;23.80;99.90;;;;;;4972532;28;20200;-75
2023/12/12 09:07:06;;;;;;;8.90;1.40;;;23.80;99.90;;;;;;4972810;28;20207;-75
2023/12/12 09:09:38;;;;;;;5.57;1.30;;;;;;;;;;4972515;28;20193;-75
2023/12/12 09:12:09;;;;;;;4.70;1.20;;;;;;;;;;4973896;28;20200;-75
2023/12/12 09:14:39;;;;;;;6.50;1.42;;;23.70;99.90;;;;;;4973157;28;20319;-74
2023/12/12 09:17:09;;;;;;;6.57;1.10;;;;;;;;;;4973300;28;20200;-75
2023/12/12 09:19:39;;;;;;;6.18;1.38;;;;;;;;;;4964119;28;20196;-74
2023/12/12 09:22:10;;;;;;;5.93;1.30;;;23.60;99.90;;;;;;4973744;28;20204;-74
2023/12/12 09:24:43;;;;;;;6.82;1.38;;;23.60;99.90;;;;;;4972140;28;20242;-74
2023/12/12 09:27:13;;;;;;;6.50;1.30;;;23.60;99.90;;;;;;4967811;28;20648;-75
2023/12/12 09:29:45;;;;;;;7.28;1.30;;;23.60;99.90;;;;;;4972758;28;20204;-74
2023/12/12 09:32:16;;;;;;;5.65;1.50;;;23.60;99.90;;;;;;4967768;28;20197;-74
2023/12/12 09:34:47;;;;;;;5.43;1.23;;;23.60;99.90;;;;;;4973502;28;20536;-75
2023/12/12 09:37:22;;;;;;;4.50;1.00;;;23.60;99.90;;;;;;4973922;28;20563;-74
2023/12/12 09:39:54;;;;;;;5.30;1.42;;;23.60;99.90;;;;;;4973412;28;20223;-74
2023/12/12 09:42:28;;;;;;;6.15;1.20;;;23.50;99.90;;;;;;4973142;28;20208;-75
2023/12/12 09:45:02;;;;;;;4.88;1.20;;;23.50;99.90;;;;;;4972461;28;20234;-74
2023/12/12 09:47:33;;;;;;;7.20;1.40;;;23.50;99.90;;;;;;4973837;28;20676;-75
2023/12/12 09:50:05;;;;;;;5.82;1.42;;;23.50;99.90;;;;;;4967332;28;20571;-75
2023/12/12 09:52:38;;;;;;;5.75;1.25;;;23.50;99.90;;;;;;4972858;28;20307;-74
2023/12/12 09:55:12;;;;;;;4.75;1.33;;;23.50;99.90;;;;;;4973381;28;20208;-74
2023/12/12 09:57:43;;;;;;;5.70;1.40;;;23.50;99.90;;;;;;4967872;28;20203;-74
2023/12/12 10:00:14;;;;;;;4.70;1.20;;;23.50;99.90;;;;;;4967050;28;20226;-74
2023/12/12 10:02:45;;;;;;;6.07;1.40;;;23.50;99.90;;;;;;4971232;28;20283;-74
2023/12/12 10:05:17;;;;;;;7.07;1.17;;;23.50;99.90;;;;;;4973436;28;20215;-74
2023/12/12 10:07:48;;;;;;;5.60;1.30;;;;;;;;;;4966541;28;20196;-74
2023/12/12 10:10:20;;;;;;;5.53;1.20;;;;;;;;;;4970537;28;20199;-74
2023/12/12 10:12:52;;;;;;;4.63;1.10;;;23.50;99.90;;;;;;4972584;28;20224;-74
2023/12/12 10:15:27;;;;;;;5.30;1.23;;;23.50;99.90;;;;;;4966308;28;20201;-74
2023/12/12 10:18:02;;;;;;;8.07;1.25;;;23.50;99.90;;;;;;4973201;28;20204;-74
2023/12/12 10:20:35;;;;;;;5.72;1.20;;;23.40;99.90;;;;;;4969580;28;20196;-74
2023/12/12 10:23:06;;;;;;;7.10;1.35;;;23.50;99.90;;;;;;4967944;28;20203;-74
2023/12/12 10:25:49;;;;;;;4.97;1.20;;;23.40;99.90;;;;;;4976069;28;20591;-75
2023/12/12 10:28:19;;;;;;;3.92;1.20;;;23.40;99.90;;;;;;4975884;28;20204;-74
2023/12/12 10:30:55;;;;;;;7.22;1.30;;;23.40;99.90;;;;;;4965555;28;20222;-75
2023/12/12 10:33:28;;;;;;;5.88;1.30;;;23.50;99.90;;;;;;4976338;28;20219;-74
2023/12/12 10:35:59;;;;;;;3.42;1.20;;;23.40;99.90;;;;;;4976644;28;20628;-74
2023/12/12 10:38:30;;;;;;;4.07;1.27;;;23.40;99.90;;;;;;4976340;28;20203;-74
2023/12/12 10:41:16;;;;;;;5.72;1.40;;;23.40;99.90;;;;;;4971468;28;20246;-74
2023/12/12 10:43:48;;;;;;;7.68;1.40;;;23.40;99.90;;;;;;4975957;28;20204;-73
2023/12/12 10:46:19;;;;;;;5.85;1.40;;;23.40;99.90;;;;;;4976427;28;20201;-75
2023/12/12 10:48:52;;;;;;;3.85;1.27;;;23.30;99.90;;;;;;4976176;28;20212;-74
2023/12/12 10:51:23;;;;;;;5.05;1.40;;;23.30;99.90;;;;;;4975776;28;20211;-74
2023/12/12 10:53:59;;;;;;;4.63;1.00;;;23.30;99.90;;;;;;4973306;28;20220;-74
2023/12/12 10:56:35;;;;;;;5.35;1.40;;;23.30;99.90;;;;;;4975940;28;20192;-74
2023/12/12 10:59:07;;;;;;;5.82;1.30;;;23.30;99.90;;;;;;4974660;28;20204;-75
2023/12/12 11:01:38;;;;;;;3.38;1.30;;;23.30;99.90;;;;;;4975411;28;20204;-75
2023/12/12 11:04:09;;;;;;;4.05;1.00;;;23.20;99.90;;;;;;4975845;28;20200;-75
2023/12/12 11:06:40;;;;;;;8.25;1.63;;;23.20;99.90;;;;;;4972700;28;20200;-75
2023/12/12 11:09:13;;;;;;;2.75;1.08;;;23.20;99.90;;;;;;4968882;28;20200;-75
2023/12/12 11:11:48;;;;;;;5.25;1.35;;;23.20;99.90;;;;;;4975531;28;20208;-75
2023/12/12 11:14:21;;;;;;;3.92;1.10;;;23.30;99.90;;;;;;4975188;28;20223;-74
2023/12/12 11:16:54;;;;;;;3.03;1.10;;;23.30;99.90;;;;;;4972958;28;20193;-75
2023/12/12 11:19:27;;;;;;;5.32;1.17;;;23.30;99.90;;;;;;4963834;28;20200;-75
2023/12/12 11:21:58;;;;;;;6.53;1.30;;;23.20;99.90;;;;;;4974931;28;20200;-75
2023/12/12 11:25:07;;;;;;;5.13;1.20;;;23.20;99.90;;;;;;4975793;28;20239;-75
2023/12/12 11:27:41;;;;;;;7.00;1.10;;;23.20;99.90;;;;;;4965422;28;20668;-74
2023/12/12 11:30:14;;;;;;;6.45;1.23;;;23.20;99.90;;;;;;4970934;28;20204;-74
2023/12/12 11:32:46;;;;;;;3.20;1.17;;;23.20;99.90;;;;;;4968283;28;20283;-75
2023/12/12 11:35:30;;;;;;;5.32;1.15;;;23.20;99.90;;;;;;4973324;28;20197;-75
2023/12/12 11:38:02;;;;;;;3.42;1.30;;;23.20;99.90;;;;;;4973747;28;20196;-74
2023/12/12 11:40:34;;;;;;;8.05;1.30;;;23.20;99.90;;;;;;4975084;28;20215;-74
2023/12/12 11:43:24;;;;;;;5.63;1.23;;;23.20;99.90;;;;;;4974641;28;20204;-74
2023/12/12 11:45:55;;;;;;;8.32;1.10;;;23.10;99.90;;;;;;4975419;28;20239;-75
2023/12/12 11:48:30;;;;;;;6.50;1.25;;;23.10;99.90;;;;;;4975144;28;20648;-75
2023/12/12 11:51:01;;;;;;;4.45;1.30;;;23.10;99.90;;;;;;4975384;28;20199;-75
2023/12/12 11:53:45;;;;;;;5.68;1.38;;;23.10;99.90;;;;;;4973751;28;20216;-75
2023/12/12 11:56:21;;;;;;;8.15;1.33;;;23.10;99.90;;;;;;4972282;28;20200;-74
2023/12/12 11:58:58;;;;;;;4.20;1.08;;;23.10;99.90;;;;;;4974019;28;20611;-74
2023/12/12 12:01:29;;;;;;;2.50;0.90;;;23.10;99.90;;;;;;4973594;28;20192;-75
2023/12/12 12:04:00;;;;;;;3.97;1.10;;;23.10;99.90;;;;;;4973891;28;20204;-75
2023/12/12 12:06:30;;;;;;;3.38;1.20;;;23.10;99.90;;;;;;4974058;28;20668;-74
2023/12/12 12:09:01;;;;;;;3.58;1.00;;;23.10;99.90;;;;;;4973768;28;20239;-75
2023/12/12 12:11:40;;;;;;;7.30;1.38;;;23.00;99.90;;;;;;4974592;28;20235;-75
2023/12/12 12:14:17;;;;;;;5.10;1.25;;;23.00;99.90;;;;;;4967785;28;20226;-74
2023/12/12 12:16:48;;;;;;;3.80;1.25;;;23.00;99.90;;;;;;4974765;28;20320;-75
2023/12/12 12:19:36;;;;;;;6.25;1.23;;;23.00;99.90;;;;;;4974958;28;20686;-74
2023/12/12 12:22:08;;;;;;;2.85;1.17;;;23.00;99.90;;;;;;4974259;28;20192;-75
2023/12/12 12:24:46;;;;;;;3.20;1.00;;;23.00;99.90;;;;;;4973789;28;20311;-75
2023/12/12 12:27:17;;;;;;;3.58;1.10;;;23.00;99.90;;;;;;4973825;28;20685;-75
2023/12/12 12:30:06;;;;;;;3.97;1.08;;;23.00;99.90;;;;;;4974306;28;20203;-74
2023/12/12 12:32:36;;;;;;;4.35;1.00;;;23.00;99.90;;;;;;4968486;28;20200;-75
2023/12/12 12:35:11;;;;;;;4.70;1.45;;;23.00;99.90;;;;;;4974153;28;20216;-74
2023/12/12 12:37:42;;;;;;;7.57;1.30;;;23.00;99.90;;;;;;4968338;28;20202;-74
2023/12/12 12:40:13;;;;;;;4.93;1.05;;;23.00;99.90;;;;;;4973468;28;20227;-75
2023/12/12 12:42:44;;;;;;;3.58;1.13;;;22.90;99.90;;;;;;4974521;28;20211;-75
2023/12/12 12:45:18;;;;;;;5.38;1.30;;;22.90;99.90;;;;;;4970317;28;20238;-75
2023/12/12 12:47:49;;;;;;;5.05;1.20;;;23.00;99.90;;;;;;4974201;28;20200;-75
2023/12/12 12:50:19;;;;;;;5.72;1.50;;;23.00;99.90;;;;;;4974396;28;20204;-75
2023/12/12 12:52:50;;;;;;;3.90;1.00;;;22.90;99.90;;;;;;4974247;28;20227;-75
2023/12/12 12:55:21;;;;;;;3.85;1.20;;;23.00;99.90;;;;;;4973010;28;20212;-75
2023/12/12 12:57:52;;;;;;;5.32;1.38;;;22.90;99.90;;;;;;4971676;28;20225;-75
2023/12/12 13:00:26;;;;;;;3.97;1.08;;;22.90;99.90;;;;;;4973857;28;20196;-75
2023/12/12 13:02:57;;;;;;;3.70;1.13;;;22.90;99.90;;;;;;4973143;28;20682;-75
2023/12/12 13:05:28;;;;;;;4.32;1.17;;;22.90;99.90;;;;;;4974072;28;20251;-74
2023/12/12 13:07:58;;;;;;;4.90;1.38;;;22.90;99.90;;;;;;4967322;28;20200;-75
2023/12/12 13:10:29;;;;;;;4.20;0.90;;;22.90;99.90;;;;;;4970547;28;20200;-75
2023/12/12 13:13:00;;;;;;;9.10;1.40;;;22.80;99.90;;;;;;4971130;28;20575;-75
2023/12/12 13:15:33;;;;;;;5.43;1.30;;;22.80;99.90;;;;;;4973653;28;20216;-75
2023/12/12 13:18:04;;;;;;;4.05;1.10;;;22.70;99.90;;;;;;4972764;28;20739;-75
2023/12/12 13:20:34;;;;;;;4.80;1.02;;;22.80;99.90;;;;;;4962545;28;20212;-75
2023/12/12 13:23:05;;;;;;;3.63;1.20;;;22.70;99.90;;;;;;4968512;28;20208;-75
2023/12/12 13:25:36;;;;;;;4.45;1.40;;;22.70;99.90;;;;;;4967907;28;20227;-75
2023/12/12 13:28:07;;;;;;;6.18;1.23;;;22.70;99.90;;;;;;4973091;28;20204;-75